Terminal Aerodrome Forecast
Issued by NWS

Home | Current Version | Previous Version | Text Only | Print | Product List | Glossary On
Versions: 1 2 3 4 5 6 7 8 9 10 11 12 13 14
000
FTUS41 KBTV 221132
TAFPBG
TAF
KPBG 221132Z 2212/2312 VRB03KT P6SM SCT070 BKN120
     FM221500 16009KT P6SM VCSH SCT045 OVC070
     FM222000 15007KT P6SM -SHRA SCT025 OVC045
     FM230000 VRB04KT P6SM VCSH OVC015
     FM230500 VRB02KT 6SM BR BKN020=

USA.gov is the U.S. government's official web portal to all federal, state and local government web resources and services.